createdAt,value
2019-03-08T00:01:34.223Z,6.27
2019-03-08T00:04:00.847Z,4.20
2019-03-08T00:06:27.775Z,9.90
2019-03-08T00:08:54.436Z,4.80
2019-03-08T00:11:21.142Z,10.10
2019-03-08T00:13:48.335Z,6.33
2019-03-08T00:16:16.127Z,5.77
2019-03-08T00:18:42.875Z,6.60
2019-03-08T00:21:09.843Z,5.20
2019-03-08T00:23:36.828Z,9.43
2019-03-08T00:26:04.439Z,7.67
2019-03-08T00:28:32.331Z,7.43
2019-03-08T00:30:59.364Z,6.90
2019-03-08T00:33:26.320Z,6.70
2019-03-08T00:35:57.106Z,5.13
2019-03-08T00:38:25.875Z,7.50
2019-03-08T00:40:54.503Z,11.90
2019-03-08T00:43:24.791Z,9.77
2019-03-08T00:45:51.427Z,10.80
2019-03-08T00:48:18.468Z,10.97
2019-03-08T00:50:45.126Z,5.90
2019-03-08T00:53:13.251Z,9.43
2019-03-08T00:55:40.415Z,6.73
2019-03-08T00:58:07.154Z,9.53
2019-03-08T01:00:33.879Z,9.10
2019-03-08T01:03:00.903Z,10.37
2019-03-08T01:05:30.278Z,7.47
2019-03-08T01:07:57.312Z,8.80
2019-03-08T01:10:24.231Z,10.47
2019-03-08T01:12:52.167Z,9.00
2019-03-08T01:15:19.619Z,9.50
2019-03-08T01:17:46.361Z,9.43
2019-03-08T01:20:13.717Z,7.10
2019-03-08T01:22:40.582Z,8.13
2019-03-08T01:25:08.943Z,6.30
2019-03-08T01:27:36.187Z,3.57
2019-03-08T01:30:03.963Z,4.60
2019-03-08T01:32:30.999Z,6.57
2019-03-08T01:34:58.558Z,3.43
2019-03-08T01:37:26.831Z,2.70
2019-03-08T01:39:53.807Z,6.65
2019-03-08T01:42:20.551Z,3.22
2019-03-08T01:44:47.217Z,2.67
2019-03-08T01:47:13.956Z,3.40
2019-03-08T01:49:40.787Z,9.50
2019-03-08T01:52:09.843Z,4.70
2019-03-08T01:54:37.227Z,4.47
2019-03-08T01:57:05.077Z,5.07
2019-03-08T01:59:32.119Z,6.77
2019-03-08T02:01:59.477Z,5.50
2019-03-08T02:04:28.423Z,3.30
2019-03-08T02:06:55.400Z,4.33
2019-03-08T02:09:22.443Z,3.03
2019-03-08T02:11:50.407Z,12.30
2019-03-08T02:14:17.358Z,2.60
2019-03-08T02:16:46.759Z,5.33
2019-03-08T02:19:14.211Z,2.98
2019-03-08T02:21:42.499Z,4.53
2019-03-08T02:24:09.463Z,4.60
2019-03-08T02:26:36.483Z,2.75
2019-03-08T02:29:06.091Z,4.30
2019-03-08T02:31:33.779Z,2.98
2019-03-08T02:34:01.927Z,2.60
2019-03-08T02:36:30.270Z,2.50
2019-03-08T02:38:59.399Z,3.60
2019-03-08T02:41:26.380Z,2.02
2019-03-08T02:43:54.391Z,2.40
2019-03-08T02:46:21.442Z,2.60
2019-03-08T02:48:49.471Z,3.85
2019-03-08T02:51:17.456Z,2.22
2019-03-08T02:53:44.182Z,3.80
2019-03-08T02:56:10.860Z,3.17
2019-03-08T02:58:38.184Z,4.50
2019-03-08T03:01:04.935Z,3.27
2019-03-08T03:03:31.895Z,2.60
2019-03-08T03:06:00.247Z,3.90
2019-03-08T03:08:27.355Z,3.27
2019-03-08T03:10:54.347Z,2.63
2019-03-08T03:13:20.971Z,5.35
2019-03-08T03:15:49.407Z,3.70
2019-03-08T03:18:17.143Z,1.30
2019-03-08T03:20:43.784Z,3.30
2019-03-08T03:23:10.699Z,7.70
2019-03-08T03:25:39.713Z,0.90
2019-03-08T03:28:07.301Z,1.40
2019-03-08T03:30:34.755Z,4.40
2019-03-08T03:33:02.420Z,1.33
2019-03-08T03:35:31.111Z,1.30
2019-03-08T03:37:57.846Z,1.30
2019-03-08T03:40:25.419Z,4.53
2019-03-08T03:42:52.554Z,3.43
2019-03-08T03:45:19.912Z,2.10
2019-03-08T03:47:49.729Z,9.67
2019-03-08T03:50:18.461Z,4.80
2019-03-08T03:52:45.539Z,4.20
2019-03-08T03:55:12.995Z,6.43
2019-03-08T03:57:40.010Z,6.30
2019-03-08T04:00:07.923Z,7.87
2019-03-08T04:02:34.660Z,16.80
2019-03-08T04:05:01.674Z,10.63
2019-03-08T04:07:28.694Z,8.60
2019-03-08T04:09:55.430Z,13.83
2019-03-08T04:12:22.369Z,8.70
2019-03-08T04:14:50.543Z,9.47
2019-03-08T04:17:17.286Z,10.80
2019-03-08T04:19:45.055Z,12.03
2019-03-08T04:22:12.478Z,9.30
2019-03-08T04:24:39.763Z,12.80
2019-03-08T04:27:07.227Z,13.50
2019-03-08T04:29:38.840Z,11.07
2019-03-08T04:32:06.195Z,14.63
2019-03-08T04:34:33.659Z,16.37
2019-03-08T04:37:00.331Z,14.13
2019-03-08T04:39:28.676Z,19.83
2019-03-08T04:41:55.719Z,12.13
2019-03-08T04:44:22.379Z,15.97
2019-03-08T04:46:49.611Z,17.73
2019-03-08T04:49:18.398Z,16.20
2019-03-08T04:51:45.854Z,17.70
2019-03-08T04:54:12.690Z,12.13
2019-03-08T04:56:39.642Z,12.30
2019-03-08T04:59:06.435Z,14.87
2019-03-08T05:01:33.122Z,15.23
2019-03-08T05:04:02.346Z,12.30
2019-03-08T05:06:30.055Z,9.83
2019-03-08T05:08:57.839Z,15.97
2019-03-08T05:11:26.054Z,14.17
2019-03-08T05:13:58.583Z,23.03
2019-03-08T05:16:25.326Z,13.27
2019-03-08T05:18:52.411Z,11.53
2019-03-08T05:21:19.062Z,17.20
2019-03-08T05:23:45.695Z,11.37
2019-03-08T05:26:13.932Z,9.83
2019-03-08T05:28:43.561Z,10.63
2019-03-08T05:31:14.790Z,18.53
2019-03-08T05:33:44.495Z,12.40
2019-03-08T05:36:11.854Z,10.90
2019-03-08T05:38:40.639Z,14.93
2019-03-08T05:41:07.892Z,12.53
2019-03-08T05:43:35.554Z,6.10
2019-03-08T05:46:02.599Z,14.20
2019-03-08T05:48:30.463Z,8.63
2019-03-08T05:50:57.435Z,14.47
2019-03-08T05:53:24.867Z,6.77
2019-03-08T05:55:51.727Z,10.83
2019-03-08T05:58:19.895Z,11.03
2019-03-08T06:00:46.932Z,11.83
2019-03-08T06:03:13.888Z,6.73
2019-03-08T06:05:40.995Z,5.40
2019-03-08T06:08:08.314Z,9.53
2019-03-08T06:10:37.039Z,10.13
2019-03-08T06:13:04.304Z,7.73
2019-03-08T06:15:31.050Z,7.73
2019-03-08T06:17:58.203Z,6.22
2019-03-08T06:20:26.982Z,7.47
2019-03-08T06:22:53.619Z,7.60
2019-03-08T06:25:25.192Z,7.60
2019-03-08T06:27:53.258Z,1.45
2019-03-08T06:30:20.303Z,7.10
2019-03-08T06:32:47.967Z,8.70
2019-03-08T06:35:15.111Z,5.08
2019-03-08T06:37:42.398Z,4.10
2019-03-08T06:40:09.563Z,9.98
2019-03-08T06:42:36.807Z,13.90
2019-03-08T06:45:04.839Z,7.85
2019-03-08T06:47:32.811Z,10.70
2019-03-08T06:50:00.674Z,15.28
2019-03-08T06:52:27.332Z,17.15
2019-03-08T06:54:54.359Z,15.20
2019-03-08T06:57:21.918Z,12.43
2019-03-08T07:00:00.435Z,24.70
2019-03-08T07:02:30.298Z,23.07
2019-03-08T07:04:59.231Z,31.60
2019-03-08T07:07:29.051Z,23.35
2019-03-08T07:09:56.717Z,36.03
2019-03-08T07:12:23.971Z,26.40
2019-03-08T07:14:52.035Z,21.48
2019-03-08T07:17:20.511Z,30.65
2019-03-08T07:20:07.061Z,30.57
2019-03-08T07:22:51.570Z,23.60
2019-03-08T07:25:38.492Z,37.63
2019-03-08T07:28:25.096Z,19.27
2019-03-08T07:31:20.268Z,25.85
2019-03-08T07:34:01.378Z,32.65
2019-03-08T07:36:45.436Z,25.37
2019-03-08T07:39:32.751Z,22.40
2019-03-08T07:42:32.726Z,33.48
2019-03-08T07:45:12.899Z,24.27
2019-03-08T07:47:57.824Z,23.32
2019-03-08T07:50:35.381Z,26.93
2019-03-08T07:53:12.874Z,24.82
2019-03-08T07:55:49.145Z,27.87
2019-03-08T07:58:26.831Z,15.80
2019-03-08T08:01:19.379Z,20.48
2019-03-08T08:03:52.890Z,26.60
2019-03-08T08:06:37.699Z,32.43
2019-03-08T08:09:15.447Z,37.77
2019-03-08T08:12:04.919Z,27.35
2019-03-08T08:14:52.207Z,27.50
2019-03-08T08:17:32.179Z,32.38
2019-03-08T08:20:36.819Z,16.00
2019-03-08T08:23:34.080Z,27.63
2019-03-08T08:26:10.535Z,20.13
2019-03-08T08:28:56.127Z,24.35
2019-03-08T08:31:42.444Z,19.07
2019-03-08T08:34:30.145Z,28.00
2019-03-08T08:37:19.619Z,25.20
2019-03-08T08:39:57.482Z,23.97
2019-03-08T08:42:47.025Z,13.10
2019-03-08T08:45:33.259Z,20.23
2019-03-08T08:48:18.975Z,53.23
2019-03-08T08:51:12.071Z,22.50
2019-03-08T08:53:58.231Z,22.13
2019-03-08T08:56:50.474Z,17.10
2019-03-08T08:59:40.187Z,23.00
2019-03-08T09:02:25.211Z,19.60
2019-03-08T09:05:01.265Z,23.57
2019-03-08T09:07:37.845Z,22.60
2019-03-08T09:10:24.068Z,20.97
2019-03-08T09:12:59.785Z,22.73
2019-03-08T09:15:44.859Z,26.97
2019-03-08T09:18:25.178Z,19.97
2019-03-08T09:20:58.749Z,18.97
2019-03-08T09:23:38.870Z,13.97
2019-03-08T09:26:18.908Z,22.60
2019-03-08T09:29:05.151Z,14.20
2019-03-08T09:31:54.704Z,13.53
2019-03-08T09:34:33.472Z,29.23
2019-03-08T09:37:25.815Z,20.63
2019-03-08T09:40:18.119Z,13.00
2019-03-08T09:43:07.593Z,16.57
2019-03-08T09:45:45.631Z,15.23
2019-03-08T09:48:24.533Z,17.23
2019-03-08T09:51:24.816Z,12.70
2019-03-08T09:54:01.527Z,13.83
2019-03-08T09:56:40.804Z,30.20
2019-03-08T09:59:30.031Z,16.87
2019-03-08T10:02:12.872Z,17.33
2019-03-08T10:05:02.012Z,20.43
2019-03-08T10:07:36.052Z,29.67
2019-03-08T10:10:23.279Z,17.53
2019-03-08T10:13:08.394Z,17.27
2019-03-08T10:15:39.327Z,23.70
2019-03-08T10:18:26.446Z,16.70
2019-03-08T10:21:12.635Z,16.27
2019-03-08T10:23:58.019Z,14.80
2019-03-08T10:26:48.646Z,19.30
2019-03-08T10:29:41.219Z,14.13
2019-03-08T10:32:26.470Z,14.50
2019-03-08T10:35:23.247Z,11.53
2019-03-08T10:38:04.985Z,13.33
2019-03-08T10:40:50.612Z,17.00
2019-03-08T10:43:32.827Z,17.97
2019-03-08T10:46:17.742Z,16.20
2019-03-08T10:49:14.810Z,13.70
2019-03-08T10:51:51.807Z,19.97
2019-03-08T10:54:27.803Z,26.37
2019-03-08T10:57:15.647Z,16.50
2019-03-08T10:59:48.235Z,16.37
2019-03-08T11:02:42.575Z,32.63
2019-03-08T11:05:31.631Z,18.10
2019-03-08T11:08:16.903Z,12.77
2019-03-08T11:11:06.261Z,18.80
2019-03-08T11:14:05.620Z,15.20
2019-03-08T11:16:52.130Z,30.47
2019-03-08T11:19:36.999Z,12.73
2019-03-08T11:22:25.328Z,16.23
2019-03-08T11:25:08.051Z,23.57
2019-03-08T11:27:51.991Z,21.93
2019-03-08T11:30:26.281Z,18.80
2019-03-08T11:33:22.812Z,14.93
2019-03-08T11:35:58.370Z,18.27
2019-03-08T11:38:35.324Z,19.07
2019-03-08T11:41:17.581Z,14.80
2019-03-08T11:44:02.983Z,13.93
2019-03-08T11:46:35.734Z,20.10
2019-03-08T11:49:20.814Z,12.70
2019-03-08T11:52:05.776Z,15.57
2019-03-08T11:54:52.878Z,12.27
2019-03-08T11:57:36.983Z,16.83
2019-03-08T12:00:24.234Z,11.40
2019-03-08T12:03:03.759Z,24.90
2019-03-08T12:05:52.808Z,16.60
2019-03-08T12:08:52.185Z,12.40
2019-03-08T12:11:51.495Z,20.07
2019-03-08T12:14:46.736Z,14.17
2019-03-08T12:17:32.364Z,14.00
2019-03-08T12:20:22.556Z,13.13
2019-03-08T12:23:08.833Z,12.20
2019-03-08T12:25:47.115Z,21.73
2019-03-08T12:28:32.799Z,17.60
2019-03-08T12:31:14.031Z,7.07
2019-03-08T12:34:02.484Z,14.50
2019-03-08T12:36:58.071Z,12.37
2019-03-08T12:39:36.555Z,12.80
2019-03-08T12:42:22.744Z,10.47
2019-03-08T12:45:08.095Z,10.03
2019-03-08T12:47:53.451Z,13.87
2019-03-08T12:50:37.223Z,10.87
2019-03-08T12:53:22.123Z,17.47
2019-03-08T12:56:07.975Z,13.53
2019-03-08T12:58:47.751Z,19.77
2019-03-08T13:01:34.314Z,12.27
2019-03-08T13:04:14.736Z,20.77
2019-03-08T13:07:02.051Z,12.93
2019-03-08T13:10:01.503Z,12.53
2019-03-08T13:12:30.992Z,9.73
2019-03-08T13:14:58.157Z,13.23
2019-03-08T13:17:30.631Z,11.93
2019-03-08T13:19:57.660Z,8.17
2019-03-08T13:22:25.966Z,12.53
2019-03-08T13:24:52.911Z,11.17
2019-03-08T13:27:20.346Z,6.77
2019-03-08T13:29:57.241Z,9.13
2019-03-08T13:32:24.009Z,15.70
2019-03-08T13:34:53.438Z,15.87
2019-03-08T13:37:20.170Z,18.70
2019-03-08T13:39:51.415Z,18.70
2019-03-08T13:42:20.144Z,11.23
2019-03-08T13:44:47.997Z,11.87
2019-03-08T13:47:14.796Z,18.70
2019-03-08T13:49:42.096Z,8.00
2019-03-08T13:52:08.819Z,10.83
2019-03-08T13:54:35.570Z,10.63
2019-03-08T13:57:02.175Z,17.63
2019-03-08T13:59:29.858Z,17.67
2019-03-08T14:02:02.558Z,6.03
2019-03-08T14:04:29.185Z,6.43
2019-03-08T14:06:55.822Z,12.27
2019-03-08T14:09:22.870Z,11.23
2019-03-08T14:11:51.355Z,18.10
2019-03-08T14:14:18.812Z,6.67
2019-03-08T14:16:46.787Z,13.10
2019-03-08T14:19:16.577Z,5.40
2019-03-08T14:21:43.772Z,7.60
2019-03-08T14:24:11.120Z,8.30
2019-03-08T14:26:42.755Z,7.67
2019-03-08T14:29:10.776Z,6.50
2019-03-08T14:32:01.118Z,8.83
2019-03-08T14:34:27.993Z,5.60
2019-03-08T14:36:54.924Z,8.63
2019-03-08T14:39:21.954Z,4.73
2019-03-08T14:42:11.848Z,8.97
2019-03-08T14:45:03.471Z,5.87
2019-03-08T14:47:48.219Z,6.80
2019-03-08T14:50:14.926Z,6.40
2019-03-08T14:52:42.600Z,11.13
2019-03-08T14:55:11.412Z,21.23
2019-03-08T14:57:38.180Z,7.70
2019-03-08T15:00:06.384Z,14.93
2019-03-08T15:02:34.039Z,23.27
2019-03-08T15:05:10.722Z,7.60
2019-03-08T15:07:29.917Z,5.30
2019-03-08T15:09:56.983Z,9.93
2019-03-08T15:12:23.754Z,9.27
2019-03-08T15:14:52.247Z,7.37
2019-03-08T15:17:19.268Z,14.90
2019-03-08T15:19:45.931Z,11.03
2019-03-08T15:22:13.728Z,12.20
2019-03-08T15:24:41.515Z,9.37
2019-03-08T15:27:08.294Z,4.23
2019-03-08T15:29:36.332Z,11.93
2019-03-08T15:32:08.767Z,11.20
2019-03-08T15:34:35.415Z,8.13
2019-03-08T15:37:02.408Z,9.80
2019-03-08T15:39:29.421Z,12.47
2019-03-08T15:41:58.604Z,5.90
2019-03-08T15:44:28.193Z,8.97
2019-03-08T15:46:55.742Z,7.80
2019-03-08T15:49:26.659Z,9.90
2019-03-08T15:51:54.284Z,6.43
2019-03-08T15:54:23.707Z,10.17
2019-03-08T15:56:51.660Z,13.83
2019-03-08T15:59:20.664Z,10.90
2019-03-08T16:01:48.231Z,7.63
2019-03-08T16:04:16.293Z,9.77
2019-03-08T16:06:45.262Z,13.27
2019-03-08T16:09:13.370Z,9.37
2019-03-08T16:11:40.719Z,8.53
2019-03-08T16:14:09.050Z,5.17
2019-03-08T16:16:36.348Z,11.77
2019-03-08T16:19:07.584Z,9.63
2019-03-08T16:21:35.659Z,5.77
2019-03-08T16:24:02.725Z,7.77
2019-03-08T16:26:29.871Z,15.30
2019-03-08T16:28:57.606Z,16.37
2019-03-08T16:31:34.288Z,6.33
2019-03-08T16:34:01.314Z,7.03
2019-03-08T16:36:54.903Z,7.55
2019-03-08T16:39:30.725Z,13.65
2019-03-08T16:42:16.947Z,10.95
2019-03-08T16:45:04.382Z,12.80
2019-03-08T16:47:50.122Z,8.90
2019-03-08T16:50:28.358Z,12.28
2019-03-08T16:53:09.967Z,11.03
2019-03-08T16:56:04.495Z,11.97
2019-03-08T16:58:56.886Z,26.17
2019-03-08T17:01:59.432Z,13.15
2019-03-08T17:04:37.212Z,11.85
2019-03-08T17:07:14.327Z,21.23
2019-03-08T17:09:50.395Z,7.90
2019-03-08T17:12:29.699Z,13.43
2019-03-08T17:15:22.405Z,6.33
2019-03-08T17:18:00.859Z,6.45
2019-03-08T17:20:49.923Z,8.75
2019-03-08T17:23:44.779Z,10.85
2019-03-08T17:26:31.302Z,11.60
2019-03-08T17:29:08.864Z,6.75
2019-03-08T17:31:43.163Z,11.83
2019-03-08T17:34:32.765Z,10.00
2019-03-08T17:37:17.602Z,19.77
2019-03-08T17:39:52.863Z,9.25
2019-03-08T17:42:37.591Z,15.30
2019-03-08T17:45:27.201Z,11.03
2019-03-08T17:48:22.225Z,7.72
2019-03-08T17:50:58.975Z,12.98
2019-03-08T17:53:37.395Z,21.95
2019-03-08T17:56:13.960Z,14.43
2019-03-08T17:58:55.211Z,18.20
2019-03-08T18:01:41.762Z,9.63
2019-03-08T18:04:27.910Z,21.75
2019-03-08T18:07:13.026Z,6.83
2019-03-08T18:09:59.661Z,12.80
2019-03-08T18:12:47.615Z,21.33
2019-03-08T18:15:21.130Z,12.20
2019-03-08T18:18:14.072Z,15.93
2019-03-08T18:20:48.427Z,17.67
2019-03-08T18:23:44.719Z,17.03
2019-03-08T18:26:25.003Z,18.40
2019-03-08T18:29:02.583Z,14.20
2019-03-08T18:31:58.538Z,26.73
2019-03-08T18:34:48.320Z,13.90
2019-03-08T18:37:53.918Z,14.93
2019-03-08T18:40:41.670Z,22.67
2019-03-08T18:43:34.140Z,14.33
2019-03-08T18:46:26.088Z,14.00
2019-03-08T18:49:08.756Z,9.13
2019-03-08T18:51:55.116Z,14.37
2019-03-08T18:54:44.151Z,13.10
2019-03-08T18:57:35.087Z,13.73
2019-03-08T19:00:24.368Z,21.37
2019-03-08T19:03:09.479Z,14.90
2019-03-08T19:06:14.327Z,24.57
2019-03-08T19:08:56.511Z,10.57
2019-03-08T19:11:42.303Z,15.10
2019-03-08T19:14:27.474Z,13.00
2019-03-08T19:17:12.791Z,12.53
2019-03-08T19:20:18.957Z,15.70
2019-03-08T19:23:07.856Z,13.57
2019-03-08T19:25:52.883Z,17.42
2019-03-08T19:28:37.919Z,21.17
2019-03-08T19:31:24.240Z,7.23
2019-03-08T19:34:10.279Z,10.97
2019-03-08T19:36:59.611Z,11.67
2019-03-08T19:39:48.816Z,12.40
2019-03-08T19:42:41.208Z,11.80
2019-03-08T19:45:18.547Z,18.63
2019-03-08T19:48:10.665Z,15.57
2019-03-08T19:50:56.928Z,17.10
2019-03-08T19:53:52.421Z,12.50
2019-03-08T19:56:41.736Z,12.20
2019-03-08T19:59:19.356Z,19.03
2019-03-08T20:02:04.763Z,18.90
2019-03-08T20:04:50.161Z,21.30
2019-03-08T20:07:41.599Z,23.43
2019-03-08T20:10:28.166Z,20.50
2019-03-08T20:13:15.483Z,15.20
2019-03-08T20:16:02.312Z,14.80
2019-03-08T20:19:08.705Z,29.50
2019-03-08T20:21:55.245Z,20.23
2019-03-08T20:24:53.833Z,18.57
2019-03-08T20:27:40.403Z,17.27
2019-03-08T20:30:36.512Z,23.50
2019-03-08T20:33:29.559Z,12.80
2019-03-08T20:36:33.935Z,30.93
2019-03-08T20:39:27.307Z,18.97
2019-03-08T20:41:59.367Z,20.20
2019-03-08T20:44:39.167Z,13.43
2019-03-08T20:47:09.841Z,16.63
2019-03-08T20:49:36.971Z,22.33
2019-03-08T20:52:03.818Z,18.90
2019-03-08T20:54:31.087Z,29.20
2019-03-08T20:57:00.565Z,30.77
2019-03-08T20:59:27.537Z,27.53
2019-03-08T21:01:54.303Z,13.80
2019-03-08T21:04:22.513Z,26.20
2019-03-08T21:06:51.318Z,29.07
2019-03-08T21:09:18.456Z,12.57
2019-03-08T21:11:46.463Z,21.77
2019-03-08T21:14:14.144Z,23.83
2019-03-08T21:16:40.815Z,31.70
2019-03-08T21:19:08.056Z,16.73
2019-03-08T21:21:35.319Z,16.10
2019-03-08T21:24:02.074Z,20.53
2019-03-08T21:26:30.820Z,26.48
2019-03-08T21:28:58.807Z,25.27
2019-03-08T21:31:26.128Z,17.57
2019-03-08T21:33:59.309Z,24.37
2019-03-08T21:36:26.178Z,22.50
2019-03-08T21:38:53.475Z,20.40
2019-03-08T21:41:20.512Z,19.03
2019-03-08T21:43:47.544Z,16.20
2019-03-08T21:46:14.184Z,16.52
2019-03-08T21:48:41.960Z,17.07
2019-03-08T21:51:09.195Z,28.37
2019-03-08T21:53:36.265Z,27.40
2019-03-08T21:56:02.929Z,21.87
2019-03-08T21:58:29.779Z,21.93
2019-03-08T22:00:56.408Z,15.50
2019-03-08T22:03:23.447Z,23.53
2019-03-08T22:05:50.136Z,18.73
2019-03-08T22:08:18.013Z,17.05
2019-03-08T22:10:52.788Z,20.80
2019-03-08T22:13:19.910Z,23.57
2019-03-08T22:15:46.944Z,19.80
2019-03-08T22:18:15.003Z,17.37
2019-03-08T22:20:41.638Z,24.10
2019-03-08T22:23:10.035Z,17.37
2019-03-08T22:25:37.750Z,22.40
2019-03-08T22:28:04.740Z,14.90
2019-03-08T22:30:31.683Z,15.57
2019-03-08T22:33:00.133Z,19.53
2019-03-08T22:35:27.417Z,26.90
2019-03-08T22:37:55.286Z,23.87
2019-03-08T22:40:25.716Z,13.67
2019-03-08T22:42:52.983Z,17.57
2019-03-08T22:45:24.823Z,22.40
2019-03-08T22:47:53.837Z,13.70
2019-03-08T22:50:24.863Z,16.53
2019-03-08T22:52:51.532Z,11.55
2019-03-08T22:55:19.323Z,18.80
2019-03-08T22:57:47.483Z,18.77
2019-03-08T23:00:26.976Z,15.72
2019-03-08T23:02:57.743Z,11.73
2019-03-08T23:05:26.085Z,15.80
2019-03-08T23:07:52.827Z,15.00
2019-03-08T23:10:20.935Z,13.80
2019-03-08T23:12:48.567Z,14.13
2019-03-08T23:15:15.802Z,6.80
2019-03-08T23:17:42.879Z,15.70
2019-03-08T23:20:10.928Z,12.13
2019-03-08T23:22:37.653Z,26.15
2019-03-08T23:25:04.927Z,14.38
2019-03-08T23:27:45.475Z,20.00
2019-03-08T23:30:22.516Z,9.53
2019-03-08T23:32:52.075Z,9.40
2019-03-08T23:35:21.174Z,13.93
2019-03-08T23:37:49.243Z,12.53
2019-03-08T23:40:16.390Z,20.27
2019-03-08T23:42:43.853Z,22.07
2019-03-08T23:45:10.966Z,16.97
2019-03-08T23:47:38.486Z,17.00
2019-03-08T23:50:05.923Z,20.60
2019-03-08T23:52:32.884Z,15.90
2019-03-08T23:55:00.229Z,10.80
2019-03-08T23:57:27.968Z,9.57
2019-03-08T23:59:55.844Z,11.30
